Time;durP1;ratioP1;P1;durP2;ratioP2;P2;SDS_P1;SDS_P2;PMS_P1;PMS_P2;Temp;Humidity;BMP_temperature;BMP_pressure;BME280_temperature;BME280_humidity;BME280_pressure;Samples;Min_cycle;Max_cycle;Signal;HPM_P1;HPM_P2
2024/01/17 00:00:23;;;;;;;31.05;12.40;;;-4.30;99.90;;;;;;5034433;28;20039;-78
2024/01/17 00:02:49;;;;;;;26.63;12.68;;;-4.20;99.90;;;;;;5028790;28;20406;-76
2024/01/17 00:05:15;;;;;;;30.23;13.52;;;-4.30;99.90;;;;;;5041679;28;20084;-77
2024/01/17 00:07:40;;;;;;;27.02;11.50;;;-4.30;99.90;;;;;;5035228;28;20108;-78
2024/01/17 00:10:07;;;;;;;22.08;11.50;;;-4.30;99.90;;;;;;5035891;28;20433;-79
2024/01/17 00:12:34;;;;;;;27.00;12.10;;;-4.30;99.90;;;;;;5042139;28;20116;-79
2024/01/17 00:15:07;;;;;;;23.58;12.70;;;-4.40;99.90;;;;;;5055364;28;20523;-78
2024/01/17 00:17:32;;;;;;;29.88;12.40;;;-4.30;99.90;;;;;;5027541;28;20045;-77
2024/01/17 00:19:58;;;;;;;34.95;13.02;;;-4.30;99.90;;;;;;5050112;28;20016;-77
2024/01/17 00:22:25;;;;;;;25.42;12.30;;;-4.30;99.90;;;;;;5046890;28;20390;-76
2024/01/17 00:24:51;;;;;;;22.85;11.70;;;-4.30;99.90;;;;;;5039080;28;20045;-77
2024/01/17 00:27:24;;;;;;;27.75;12.60;;;-4.30;99.90;;;;;;5043064;28;20025;-76
2024/01/17 00:29:51;;;;;;;25.65;12.00;;;-4.30;99.90;;;;;;5041287;28;20058;-76
2024/01/17 00:32:18;;;;;;;25.48;12.10;;;-4.30;99.90;;;;;;5043948;28;20025;-78
2024/01/17 00:34:44;;;;;;;23.83;11.55;;;-4.30;99.90;;;;;;5048113;28;20068;-77
2024/01/17 00:37:11;;;;;;;23.58;11.68;;;-4.30;99.90;;;;;;5048142;28;20537;-77
2024/01/17 00:39:37;;;;;;;26.90;13.48;;;-4.30;99.90;;;;;;5045685;28;20340;-76
2024/01/17 00:42:06;;;;;;;28.92;12.60;;;-4.20;99.90;;;;;;5035505;28;20393;-77
2024/01/17 00:44:33;;;;;;;24.77;11.90;;;-4.20;99.90;;;;;;5034403;28;20044;-78
2024/01/17 00:46:59;;;;;;;32.17;13.07;;;-4.30;99.90;;;;;;5043585;28;20029;-76
2024/01/17 00:49:25;;;;;;;27.15;11.88;;;-4.20;99.90;;;;;;5033839;28;20036;-77
2024/01/17 00:51:52;;;;;;;23.00;11.57;;;-4.20;99.90;;;;;;5034390;28;20013;-76
2024/01/17 00:54:18;;;;;;;25.50;12.07;;;-4.20;99.90;;;;;;5043557;28;20040;-77
2024/01/17 00:56:43;;;;;;;28.95;13.13;;;-4.20;99.90;;;;;;5046483;28;20431;-77
2024/01/17 00:59:09;;;;;;;29.25;13.07;;;-4.20;99.90;;;;;;5045804;28;20036;-77
2024/01/17 01:01:35;;;;;;;31.42;14.48;;;-4.20;99.90;;;;;;5034216;28;20025;-76
2024/01/17 01:04:01;;;;;;;28.65;12.65;;;-4.20;99.90;;;;;;5043522;28;20079;-78
2024/01/17 01:06:26;;;;;;;26.85;12.70;;;-4.20;99.90;;;;;;5041446;28;20095;-77
2024/01/17 01:08:54;;;;;;;26.65;12.52;;;-4.10;99.90;;;;;;5038182;28;20397;-77
2024/01/17 01:11:19;;;;;;;31.98;13.23;;;-4.10;99.90;;;;;;5032275;28;20101;-78
2024/01/17 01:13:45;;;;;;;26.10;12.45;;;-4.00;99.90;;;;;;5041274;28;20104;-77
2024/01/17 01:16:10;;;;;;;27.95;12.35;;;-4.00;99.90;;;;;;5039950;28;20096;-77
2024/01/17 01:18:36;;;;;;;24.45;13.15;;;-3.90;99.90;;;;;;5045354;28;20341;-76
2024/01/17 01:21:02;;;;;;;23.20;11.90;;;-3.90;99.90;;;;;;5036327;28;20445;-77
2024/01/17 01:23:28;;;;;;;22.58;11.50;;;-3.90;99.90;;;;;;5037604;28;20128;-77
2024/01/17 01:25:55;;;;;;;22.52;11.68;;;-3.80;99.90;;;;;;5038633;28;20017;-77
2024/01/17 01:28:20;;;;;;;25.08;12.25;;;-3.70;99.90;;;;;;5045553;28;20098;-77
2024/01/17 01:30:47;;;;;;;21.17;10.93;;;-3.70;99.90;;;;;;5057696;28;20079;-77
2024/01/17 01:33:12;;;;;;;25.25;11.25;;;-3.70;99.90;;;;;;5044047;28;20382;-77
2024/01/17 01:35:38;;;;;;;25.85;13.23;;;-3.70;99.90;;;;;;5039454;28;20029;-77
2024/01/17 01:38:04;;;;;;;27.80;13.30;;;-3.60;99.90;;;;;;5045887;28;20099;-77
2024/01/17 01:40:29;;;;;;;29.48;12.95;;;-3.50;99.90;;;;;;5067159;28;20512;-78
2024/01/17 01:42:58;;;;;;;26.30;12.13;;;-3.50;99.90;;;;;;5055393;28;20112;-78
2024/01/17 01:45:24;;;;;;;23.52;13.40;;;-3.50;99.90;;;;;;5060328;28;20036;-78
2024/01/17 01:47:50;;;;;;;25.27;12.05;;;-3.40;99.90;;;;;;5050708;28;20024;-77
2024/01/17 01:50:16;;;;;;;28.88;13.02;;;-3.50;99.90;;;;;;5047374;28;20028;-77
2024/01/17 01:52:44;;;;;;;23.10;11.80;;;-3.40;99.90;;;;;;5032719;28;20165;-77
2024/01/17 01:55:11;;;;;;;24.45;11.85;;;-3.40;99.90;;;;;;5050336;28;20071;-77
2024/01/17 01:57:42;;;;;;;28.52;13.15;;;-3.50;99.90;;;;;;5043342;28;20299;-76
2024/01/17 02:00:09;;;;;;;22.85;11.38;;;-3.40;99.90;;;;;;5050422;28;20028;-78
2024/01/17 02:02:34;;;;;;;28.40;12.13;;;-3.40;99.90;;;;;;5048123;28;20029;-77
2024/01/17 02:05:03;;;;;;;28.20;12.45;;;-3.40;99.90;;;;;;5049065;28;20044;-79
2024/01/17 02:07:32;;;;;;;25.30;13.20;;;-3.30;99.90;;;;;;5054720;28;20561;-77
2024/01/17 02:09:59;;;;;;;28.27;12.52;;;-3.30;99.90;;;;;;5048837;28;20056;-78
2024/01/17 02:12:25;;;;;;;22.70;11.77;;;-3.30;99.90;;;;;;5047064;28;20020;-75
2024/01/17 02:14:54;;;;;;;25.73;12.88;;;;;;;;;;5047057;28;20025;-79
2024/01/17 02:17:24;;;;;;;28.17;12.52;;;;;;;;;;5035598;28;20018;-79
2024/01/17 02:19:51;;;;;;;24.17;13.10;;;;;;;;;;5048496;28;20029;-78
2024/01/17 02:22:19;;;;;;;23.10;12.40;;;;;;;;;;5048436;28;20413;-78
2024/01/17 02:24:46;;;;;;;23.65;11.93;;;;;;;;;;5042474;28;20037;-77
2024/01/17 02:27:14;;;;;;;24.60;12.43;;;;;;;;;;5050096;28;20074;-79
2024/01/17 02:29:45;;;;;;;23.48;12.55;;;;;;;;;;5047934;28;20075;-78
2024/01/17 02:32:12;;;;;;;23.77;12.50;;;;;;;;;;5048902;28;20013;-78
2024/01/17 02:34:38;;;;;;;30.45;12.32;;;-2.90;99.90;;;;;;5047931;28;20025;-78
2024/01/17 02:37:09;;;;;;;26.13;11.63;;;-2.80;99.90;;;;;;5036383;28;20079;-78
2024/01/17 02:39:34;;;;;;;24.88;12.55;;;-2.80;99.90;;;;;;5043251;28;20029;-78
2024/01/17 02:42:00;;;;;;;20.38;11.70;;;-2.80;99.90;;;;;;5047566;28;20021;-77
2024/01/17 02:44:26;;;;;;;26.45;12.60;;;-2.80;99.90;;;;;;5047632;28;20035;-78
2024/01/17 02:46:51;;;;;;;28.02;12.75;;;-2.70;99.90;;;;;;5049573;28;20061;-78
2024/01/17 02:49:19;;;;;;;27.98;13.10;;;-2.60;99.90;;;;;;5027199;28;20558;-78
2024/01/17 02:51:45;;;;;;;24.05;12.52;;;-2.60;99.90;;;;;;5043120;28;20107;-78
2024/01/17 02:54:11;;;;;;;26.60;13.20;;;-2.60;99.90;;;;;;5048727;28;20013;-79
2024/01/17 02:56:36;;;;;;;29.35;13.20;;;-2.70;99.90;;;;;;5048248;28;20265;-78
2024/01/17 02:59:02;;;;;;;25.73;13.45;;;-2.70;99.90;;;;;;5046930;28;20098;-79
2024/01/17 03:01:27;;;;;;;22.77;11.65;;;-2.70;99.90;;;;;;5044222;28;20056;-79
2024/01/17 03:03:53;;;;;;;25.30;12.45;;;-2.70;99.90;;;;;;5046727;28;20028;-79
2024/01/17 03:06:19;;;;;;;22.05;11.98;;;-2.60;99.90;;;;;;5048395;28;20464;-79
2024/01/17 03:08:44;;;;;;;27.08;13.52;;;-2.70;99.90;;;;;;5040721;28;20035;-79
2024/01/17 03:11:10;;;;;;;25.40;13.52;;;-2.60;99.90;;;;;;5047970;28;20021;-79
2024/01/17 03:13:37;;;;;;;26.83;12.75;;;-2.50;99.90;;;;;;5041825;28;20608;-79
2024/01/17 03:16:03;;;;;;;28.08;14.63;;;-2.60;99.90;;;;;;5047309;28;20017;-79
2024/01/17 03:18:29;;;;;;;26.95;14.27;;;-2.60;99.90;;;;;;5030539;28;20087;-79
2024/01/17 03:20:54;;;;;;;28.85;12.98;;;-2.70;99.90;;;;;;5042701;28;20071;-76
2024/01/17 03:23:21;;;;;;;26.27;14.25;;;-2.70;99.90;;;;;;5046984;28;20048;-77
2024/01/17 03:25:47;;;;;;;29.42;13.25;;;-2.80;99.90;;;;;;5034418;28;20031;-76
2024/01/17 03:28:13;;;;;;;27.95;13.25;;;-2.80;99.90;;;;;;5035692;28;20017;-77
2024/01/17 03:30:38;;;;;;;31.98;13.05;;;-2.80;99.90;;;;;;5047491;28;20033;-75
2024/01/17 03:33:04;;;;;;;27.92;13.73;;;-2.80;99.90;;;;;;5040131;28;20037;-78
2024/01/17 03:35:30;;;;;;;29.40;14.38;;;-2.80;99.90;;;;;;5034429;28;20021;-78
2024/01/17 03:37:57;;;;;;;28.05;14.25;;;-2.70;99.90;;;;;;5048322;28;20017;-78
2024/01/17 03:40:24;;;;;;;27.38;13.82;;;-2.70;99.90;;;;;;5042621;28;20056;-78
2024/01/17 03:42:50;;;;;;;29.45;14.70;;;-2.70;99.90;;;;;;5040864;28;20026;-78
2024/01/17 03:45:18;;;;;;;25.30;14.02;;;-2.70;99.90;;;;;;5044988;28;20021;-78
2024/01/17 03:47:44;;;;;;;26.88;13.93;;;-2.70;99.90;;;;;;5034780;28;20032;-77
2024/01/17 03:50:10;;;;;;;25.92;14.35;;;-2.70;99.90;;;;;;5047226;28;20390;-78
2024/01/17 03:52:35;;;;;;;32.33;14.80;;;-2.60;99.90;;;;;;5039725;28;20285;-78
2024/01/17 03:55:01;;;;;;;28.83;14.60;;;-2.50;99.90;;;;;;5047573;28;20025;-79
2024/01/17 03:57:27;;;;;;;31.70;15.65;;;-2.50;99.90;;;;;;5038779;28;20115;-77
2024/01/17 03:59:53;;;;;;;29.58;15.00;;;-2.50;99.90;;;;;;5045330;28;20020;-79
2024/01/17 04:02:19;;;;;;;31.75;15.88;;;-2.50;99.90;;;;;;5035222;28;20017;-78
2024/01/17 04:04:45;;;;;;;29.73;14.05;;;-2.50;99.90;;;;;;5048363;28;20036;-77
2024/01/17 04:07:11;;;;;;;30.95;16.40;;;-2.60;99.90;;;;;;5046993;28;20453;-77
2024/01/17 04:09:37;;;;;;;25.42;13.23;;;-2.60;99.90;;;;;;5045115;28;20537;-77
2024/01/17 04:12:03;;;;;;;28.58;15.00;;;-2.60;99.90;;;;;;5046754;28;20036;-77
2024/01/17 04:14:28;;;;;;;28.25;15.25;;;-2.60;99.90;;;;;;5046534;28;20087;-79
2024/01/17 04:16:54;;;;;;;31.13;14.80;;;-2.70;99.90;;;;;;5046721;28;20132;-80
2024/01/17 04:19:20;;;;;;;30.70;14.65;;;-2.70;99.90;;;;;;5045751;28;20021;-79
2024/01/17 04:21:46;;;;;;;32.88;15.65;;;-2.70;99.90;;;;;;5034687;28;20116;-79
2024/01/17 04:24:11;;;;;;;27.75;14.90;;;-2.60;99.90;;;;;;5045960;28;20123;-80
2024/01/17 04:26:37;;;;;;;28.40;14.80;;;-2.60;99.90;;;;;;5032340;28;20105;-79
2024/01/17 04:29:03;;;;;;;27.33;15.45;;;-2.50;99.90;;;;;;5041206;28;20128;-78
2024/01/17 04:31:30;;;;;;;30.98;14.80;;;-2.40;99.90;;;;;;5040331;28;20577;-77
2024/01/17 04:33:56;;;;;;;32.90;17.02;;;-2.40;99.90;;;;;;5040156;28;20032;-77
2024/01/17 04:36:24;;;;;;;34.20;17.45;;;-2.30;99.90;;;;;;5029727;28;20470;-78
2024/01/17 04:38:50;;;;;;;34.30;15.70;;;-2.30;99.90;;;;;;5038981;28;20021;-77
2024/01/17 04:41:19;;;;;;;31.30;16.75;;;-2.30;99.90;;;;;;5041203;28;20116;-77
2024/01/17 04:43:45;;;;;;;31.77;15.93;;;-2.30;99.90;;;;;;5041003;28;20115;-77
2024/01/17 04:46:15;;;;;;;31.20;14.60;;;-2.30;99.90;;;;;;5028620;28;20075;-77
2024/01/17 04:48:42;;;;;;;28.95;15.55;;;-2.30;99.90;;;;;;5048101;28;20441;-77
2024/01/17 04:51:09;;;;;;;30.55;15.82;;;-2.30;99.90;;;;;;5047818;28;20036;-77
2024/01/17 04:53:41;;;;;;;30.00;15.57;;;-2.30;99.90;;;;;;5044799;28;20052;-77
2024/01/17 04:56:09;;;;;;;28.85;15.65;;;-2.30;99.90;;;;;;5037019;28;20025;-77
2024/01/17 04:58:36;;;;;;;34.47;15.15;;;;;;;;;;5040775;28;20086;-77
2024/01/17 05:01:02;;;;;;;29.20;16.15;;;-2.10;99.90;;;;;;5042290;28;20044;-77
2024/01/17 05:03:29;;;;;;;32.97;16.30;;;-2.10;99.90;;;;;;5045000;28;20036;-77
2024/01/17 05:05:55;;;;;;;31.83;16.45;;;-2.10;99.90;;;;;;5044526;28;20083;-78
2024/01/17 05:08:20;;;;;;;28.75;14.77;;;-2.00;99.90;;;;;;5045598;28;20029;-77
2024/01/17 05:10:46;;;;;;;29.83;16.20;;;-2.00;99.90;;;;;;5043314;28;20029;-77
2024/01/17 05:13:12;;;;;;;33.53;16.83;;;-2.00;99.90;;;;;;5048396;28;20091;-77
2024/01/17 05:15:39;;;;;;;33.88;16.83;;;-2.10;99.90;;;;;;5044019;28;20025;-77
2024/01/17 05:18:06;;;;;;;31.08;16.70;;;-2.10;99.90;;;;;;5047279;28;20029;-77
2024/01/17 05:20:32;;;;;;;38.30;17.50;;;-2.10;99.90;;;;;;5030577;28;20132;-76
2024/01/17 05:22:59;;;;;;;33.22;17.23;;;-2.10;99.90;;;;;;5041724;28;20529;-77
2024/01/17 05:25:25;;;;;;;33.65;18.05;;;-2.10;99.90;;;;;;5038737;28;20033;-77
2024/01/17 05:27:52;;;;;;;33.17;17.40;;;-2.10;99.90;;;;;;5035963;28;20021;-78
2024/01/17 05:30:19;;;;;;;33.85;16.65;;;-2.10;99.90;;;;;;5037832;28;20047;-76
2024/01/17 05:32:44;;;;;;;32.47;17.80;;;-2.10;99.90;;;;;;5045995;28;20086;-77
2024/01/17 05:35:10;;;;;;;34.10;16.85;;;-2.00;99.90;;;;;;5040351;28;20026;-77
2024/01/17 05:37:40;;;;;;;29.80;17.15;;;-2.00;99.90;;;;;;5033355;28;20404;-76
2024/01/17 05:40:08;;;;;;;34.53;17.75;;;-1.90;99.90;;;;;;5051673;28;20434;-76
2024/01/17 05:42:34;;;;;;;41.63;17.27;;;-1.90;99.90;;;;;;5043261;28;20026;-76
2024/01/17 05:45:00;;;;;;;31.42;17.60;;;-1.80;99.90;;;;;;5045526;28;20029;-78
2024/01/17 05:47:25;;;;;;;38.00;18.95;;;-1.80;99.90;;;;;;5045971;28;20037;-77
2024/01/17 05:49:51;;;;;;;34.08;18.80;;;-1.70;99.90;;;;;;5041446;28;20029;-77
2024/01/17 05:52:18;;;;;;;34.33;18.15;;;-1.70;99.90;;;;;;5036532;28;20018;-77
2024/01/17 05:54:43;;;;;;;33.92;17.45;;;-1.60;99.90;;;;;;5041072;28;20060;-76
2024/01/17 05:57:09;;;;;;;34.67;17.15;;;-1.60;99.90;;;;;;5048613;28;20076;-76
2024/01/17 05:59:35;;;;;;;29.70;16.50;;;-1.50;99.90;;;;;;5051506;28;20070;-76
2024/01/17 06:02:00;;;;;;;39.58;18.92;;;-1.50;99.90;;;;;;5041056;28;20025;-80
2024/01/17 06:04:26;;;;;;;37.33;18.17;;;-1.50;99.90;;;;;;5047698;28;20024;-76
2024/01/17 06:06:51;;;;;;;35.13;18.05;;;-1.40;99.90;;;;;;5045114;28;20025;-76
2024/01/17 06:09:18;;;;;;;35.42;18.58;;;-1.40;99.90;;;;;;5045949;28;20037;-76
2024/01/17 06:11:44;;;;;;;35.47;18.00;;;-1.40;99.90;;;;;;5050185;28;20500;-75
2024/01/17 06:14:11;;;;;;;31.13;18.02;;;-1.20;99.90;;;;;;5046695;28;20067;-74
2024/01/17 06:16:36;;;;;;;35.67;18.08;;;-1.20;99.90;;;;;;5042872;28;20169;-74
2024/01/17 06:19:02;;;;;;;31.80;17.52;;;-1.20;99.90;;;;;;5048684;28;20032;-77
2024/01/17 06:21:28;;;;;;;37.80;19.30;;;-1.10;99.90;;;;;;5049143;28;20032;-73
2024/01/17 06:23:54;;;;;;;35.67;19.58;;;-1.20;99.90;;;;;;5049315;28;20099;-72
2024/01/17 06:26:19;;;;;;;38.72;20.23;;;-1.10;99.90;;;;;;5045539;28;20478;-75
2024/01/17 06:28:45;;;;;;;39.10;20.58;;;-1.10;99.90;;;;;;5038099;28;20511;-75
2024/01/17 06:31:11;;;;;;;35.33;19.60;;;-1.10;99.90;;;;;;5046952;28;20106;-75
2024/01/17 06:33:36;;;;;;;32.88;19.05;;;-1.10;99.90;;;;;;5050920;28;20314;-74
2024/01/17 06:36:02;;;;;;;34.90;19.95;;;-1.10;99.90;;;;;;5050165;28;20462;-73
2024/01/17 06:38:28;;;;;;;37.58;19.75;;;-1.10;99.90;;;;;;5038058;28;20061;-74
2024/01/17 06:40:53;;;;;;;39.20;20.42;;;-1.10;99.90;;;;;;5036403;28;20718;-73
2024/01/17 06:43:20;;;;;;;37.13;20.40;;;-1.10;99.90;;;;;;5040113;28;20449;-73
2024/01/17 06:45:46;;;;;;;35.65;19.95;;;-1.10;99.90;;;;;;5044650;28;20044;-72
2024/01/17 06:48:12;;;;;;;39.35;21.13;;;-1.10;99.90;;;;;;5037584;28;20061;-72
2024/01/17 06:50:38;;;;;;;36.47;19.75;;;-1.10;99.90;;;;;;5035649;28;20037;-73
2024/01/17 06:53:05;;;;;;;36.60;21.30;;;-1.10;99.90;;;;;;5047602;28;20056;-73
2024/01/17 06:55:30;;;;;;;35.40;20.25;;;-1.00;99.90;;;;;;5044334;28;20032;-73
2024/01/17 06:57:56;;;;;;;44.75;21.10;;;-1.00;99.90;;;;;;5041585;28;20021;-72
2024/01/17 07:00:21;;;;;;;37.15;20.60;;;-1.00;99.90;;;;;;5038493;28;20390;-74
2024/01/17 07:02:47;;;;;;;37.15;21.13;;;-1.00;99.90;;;;;;5039436;28;20465;-77
2024/01/17 07:05:14;;;;;;;39.00;21.83;;;-0.90;99.90;;;;;;5047271;28;20029;-76
2024/01/17 07:07:40;;;;;;;39.47;20.90;;;-0.80;99.90;;;;;;5046467;28;20154;-77
2024/01/17 07:10:08;;;;;;;39.60;22.00;;;-0.80;99.90;;;;;;5056347;28;20052;-74
2024/01/17 07:12:34;;;;;;;37.67;21.10;;;-0.80;99.90;;;;;;5052633;28;20024;-75
2024/01/17 07:14:59;;;;;;;36.78;21.20;;;-0.80;99.90;;;;;;5044474;28;20486;-76
2024/01/17 07:17:25;;;;;;;40.30;22.20;;;-0.70;99.90;;;;;;5040845;28;20036;-76
2024/01/17 07:19:51;;;;;;;42.88;21.60;;;-0.70;99.90;;;;;;5050778;28;20601;-77
2024/01/17 07:22:17;;;;;;;41.72;22.33;;;-0.70;99.90;;;;;;5061184;28;20017;-77
2024/01/17 07:24:46;;;;;;;40.25;22.15;;;-0.70;99.90;;;;;;5061038;28;20044;-77
2024/01/17 07:27:11;;;;;;;42.75;22.90;;;-0.70;99.90;;;;;;5047750;28;20025;-77
2024/01/17 07:29:37;;;;;;;41.38;22.65;;;-0.70;99.90;;;;;;5038707;28;20030;-76
2024/01/17 07:32:03;;;;;;;41.22;22.17;;;-0.60;99.90;;;;;;5036244;28;20023;-76
2024/01/17 07:34:29;;;;;;;44.10;23.67;;;-0.60;99.90;;;;;;5030831;28;20033;-76
2024/01/17 07:36:55;;;;;;;41.28;23.92;;;-0.50;99.90;;;;;;5042651;28;20025;-75
2024/01/17 07:39:22;;;;;;;46.22;25.42;;;-0.50;99.90;;;;;;5038061;28;20109;-75
2024/01/17 07:41:48;;;;;;;42.80;22.63;;;-0.50;99.90;;;;;;5046358;28;20025;-77
2024/01/17 07:44:14;;;;;;;38.45;20.73;;;-0.50;99.90;;;;;;5031348;28;20096;-77
2024/01/17 07:46:40;;;;;;;37.80;20.50;;;-0.40;99.90;;;;;;5044823;28;20041;-76
2024/01/17 07:49:06;;;;;;;44.53;21.63;;;-0.40;99.90;;;;;;5042422;28;20047;-76
2024/01/17 07:51:32;;;;;;;40.78;21.17;;;;;;;;;;5041270;28;20064;-75
2024/01/17 07:53:58;;;;;;;40.17;20.85;;;;;;;;;;5046091;28;20078;-75
2024/01/17 07:56:24;;;;;;;46.25;22.20;;;;;;;;;;5045082;28;20065;-76
2024/01/17 07:58:50;;;;;;;40.40;21.77;;;;;;;;;;5035755;28;20532;-76
2024/01/17 08:01:19;;;;;;;39.28;21.00;;;;;;;;;;5033150;28;20033;-76
2024/01/17 08:03:46;;;;;;;39.65;22.17;;;;;;;;;;5033413;28;20025;-76
2024/01/17 08:06:12;;;;;;;35.63;20.98;;;;;;;;;;5042530;28;20025;-76
2024/01/17 08:08:38;;;;;;;41.33;22.17;;;;;;;;;;5037118;28;20032;-76
2024/01/17 08:11:04;;;;;;;41.25;23.10;;;;;;;;;;5045848;28;20180;-81
2024/01/17 08:13:30;;;;;;;44.70;20.85;;;;;;;;;;5054042;28;20025;-77
2024/01/17 08:15:56;;;;;;;42.85;21.38;;;;;;;;;;5041145;28;20410;-77
2024/01/17 08:18:23;;;;;;;51.72;21.83;;;;;;;;;;5036877;28;20486;-76
2024/01/17 08:20:49;;;;;;;40.47;21.30;;;;;;;;;;5048148;28;20029;-76
2024/01/17 08:23:15;;;;;;;40.92;22.75;;;;;;;;;;5038471;28;20049;-76
2024/01/17 08:25:42;;;;;;;47.13;23.92;;;;;;;;;;5048384;28;20124;-76
2024/01/17 08:28:08;;;;;;;45.83;22.38;;;;;;;;;;5048482;28;20024;-76
2024/01/17 08:30:34;;;;;;;38.72;22.92;;;;;;;;;;5042301;28;20041;-77
2024/01/17 08:33:00;;;;;;;43.85;23.00;;;;;;;;;;5043162;28;20026;-77
2024/01/17 08:35:26;;;;;;;43.67;22.17;;;;;;;;;;5039828;28;20477;-77
2024/01/17 08:37:52;;;;;;;44.95;23.67;;;;;;;;;;5036277;28;20033;-73
2024/01/17 08:40:18;;;;;;;45.85;24.38;;;;;;;;;;5040609;28;20033;-74
2024/01/17 08:42:45;;;;;;;46.47;23.15;;;;;;;;;;5040815;28;20847;-74
2024/01/17 08:45:11;;;;;;;41.08;23.52;;;;;;;;;;5039290;28;20452;-73
2024/01/17 08:47:38;;;;;;;48.13;25.52;;;;;;;;;;5040256;28;20390;-73
2024/01/17 08:50:04;;;;;;;48.40;24.05;;;;;;;;;;5039608;28;20709;-73
2024/01/17 08:52:30;;;;;;;49.85;26.10;;;;;;;;;;5029517;28;20018;-73
2024/01/17 08:54:57;;;;;;;39.50;23.30;;;;;;;;;;5044856;28;20083;-73
2024/01/17 08:57:23;;;;;;;47.58;24.13;;;;;;;;;;5029811;28;20034;-73
2024/01/17 08:59:49;;;;;;;48.83;24.92;;;;;;;;;;5037788;28;20089;-73
2024/01/17 09:02:15;;;;;;;40.85;21.73;;;;;;;;;;5047636;28;20469;-73
2024/01/17 09:04:41;;;;;;;36.95;19.42;;;1.00;99.90;;;;;;5042807;28;20115;-73
2024/01/17 09:07:08;;;;;;;39.42;20.48;;;1.00;99.90;;;;;;5040668;28;20177;-73
2024/01/17 09:09:33;;;;;;;33.65;17.75;;;1.10;99.90;;;;;;5031930;28;20053;-74
2024/01/17 09:11:59;;;;;;;26.85;15.07;;;1.20;99.90;;;;;;5052325;28;20052;-74
2024/01/17 09:14:25;;;;;;;30.58;17.88;;;1.40;99.90;;;;;;5041583;28;20037;-73
2024/01/17 09:16:51;;;;;;;28.40;16.92;;;1.40;99.90;;;;;;5041609;28;20087;-73
2024/01/17 09:19:20;;;;;;;36.30;17.60;;;1.60;99.90;;;;;;5031933;28;20075;-73
2024/01/17 09:21:47;;;;;;;35.67;19.60;;;1.70;99.90;;;;;;5045105;28;20067;-74
2024/01/17 09:24:13;;;;;;;32.67;17.23;;;1.60;99.90;;;;;;5048030;28;20033;-74
2024/01/17 09:26:39;;;;;;;38.58;20.35;;;1.70;99.90;;;;;;5041102;28;20044;-73
2024/01/17 09:29:05;;;;;;;40.92;21.13;;;1.60;99.90;;;;;;5034955;28;20420;-74
2024/01/17 09:31:31;;;;;;;38.20;20.40;;;1.60;99.90;;;;;;5041777;28;20045;-73
2024/01/17 09:33:56;;;;;;;38.63;20.17;;;1.60;99.90;;;;;;5030425;28;20032;-74
2024/01/17 09:36:22;;;;;;;41.97;21.60;;;1.50;99.90;;;;;;5041577;28;20100;-74
2024/01/17 09:38:47;;;;;;;36.08;19.55;;;1.40;99.90;;;;;;5051055;28;20405;-73
2024/01/17 09:41:14;;;;;;;36.33;19.88;;;1.50;99.90;;;;;;5040825;28;20029;-74
2024/01/17 09:43:40;;;;;;;33.80;19.25;;;1.50;99.90;;;;;;5032089;28;20178;-73
2024/01/17 09:46:12;;;;;;;35.42;19.20;;;1.50;99.90;;;;;;5035457;28;20037;-73
2024/01/17 09:48:38;;;;;;;42.58;20.45;;;1.60;99.90;;;;;;5038211;28;20687;-74
2024/01/17 09:51:04;;;;;;;41.25;21.38;;;1.70;99.90;;;;;;5039694;28;20043;-74
2024/01/17 09:53:33;;;;;;;34.08;19.67;;;1.70;99.90;;;;;;5037862;28;20021;-73
2024/01/17 09:56:01;;;;;;;34.88;19.50;;;1.80;99.90;;;;;;5063067;28;20037;-73
2024/01/17 09:58:36;;;;;;;41.00;20.55;;;1.80;99.90;;;;;;5045687;28;20546;-73
2024/01/17 10:01:04;;;;;;;34.00;19.50;;;1.70;99.90;;;;;;5042775;28;20042;-73
2024/01/17 10:03:34;;;;;;;39.63;20.00;;;1.80;99.90;;;;;;5034527;28;20049;-74
2024/01/17 10:06:00;;;;;;;37.97;19.40;;;1.70;99.90;;;;;;5043713;28;20052;-73
2024/01/17 10:08:27;;;;;;;39.97;21.60;;;1.70;99.90;;;;;;5037846;28;20056;-73
2024/01/17 10:10:53;;;;;;;37.88;22.10;;;1.60;99.90;;;;;;5039036;28;20465;-73
2024/01/17 10:13:19;;;;;;;40.25;21.27;;;1.60;99.90;;;;;;5044863;28;20112;-73
2024/01/17 10:15:45;;;;;;;40.67;20.40;;;1.60;99.90;;;;;;5046893;28;20050;-73
2024/01/17 10:18:12;;;;;;;42.35;21.52;;;1.60;99.90;;;;;;5040995;28;20067;-74
2024/01/17 10:20:38;;;;;;;38.15;20.85;;;1.70;99.90;;;;;;5040554;28;20082;-73
2024/01/17 10:23:06;;;;;;;40.15;22.35;;;1.70;99.90;;;;;;5047117;28;20490;-73
2024/01/17 10:25:39;;;;;;;38.10;20.35;;;1.70;99.90;;;;;;5051872;28;20074;-73
2024/01/17 10:28:07;;;;;;;34.97;20.52;;;1.80;99.90;;;;;;5049529;28;20024;-74
2024/01/17 10:30:32;;;;;;;35.45;19.88;;;1.90;99.90;;;;;;5043146;28;20021;-75
2024/01/17 10:32:59;;;;;;;36.53;18.73;;;1.90;99.90;;;;;;5031272;28;20040;-74
2024/01/17 10:35:25;;;;;;;29.83;17.63;;;1.90;99.90;;;;;;5047162;28;20776;-73
2024/01/17 10:37:53;;;;;;;31.65;18.20;;;1.90;99.90;;;;;;5048650;28;20025;-72
2024/01/17 10:40:19;;;;;;;29.40;17.20;;;1.90;99.90;;;;;;5041189;28;20032;-72
2024/01/17 10:42:45;;;;;;;33.45;17.92;;;1.90;99.90;;;;;;5046602;28;20041;-72
2024/01/17 10:45:22;;;;;;;32.78;17.88;;;1.90;99.90;;;;;;5038144;28;20036;-72
2024/01/17 10:47:48;;;;;;;33.13;17.92;;;1.90;99.90;;;;;;5037010;28;20426;-72
2024/01/17 10:50:15;;;;;;;29.45;17.30;;;2.00;99.90;;;;;;5039358;28;20065;-71
2024/01/17 10:52:43;;;;;;;29.92;17.65;;;1.90;99.90;;;;;;5049318;28;20037;-72
2024/01/17 10:55:13;;;;;;;32.55;18.50;;;2.00;99.90;;;;;;5046499;28;20131;-72
2024/01/17 10:57:43;;;;;;;27.17;15.18;;;;;;;;;;5041708;28;20282;-71
2024/01/17 11:00:16;;;;;;;27.90;15.68;;;;;;;;;;5034927;28;20144;-71
2024/01/17 11:02:44;;;;;;;24.80;15.27;;;;;;;;;;5046494;28;20041;-71
2024/01/17 11:05:14;;;;;;;25.40;14.90;;;;;;;;;;5049117;28;20075;-71
2024/01/17 11:07:41;;;;;;;28.88;16.58;;;;;;;;;;5035474;28;20176;-72
2024/01/17 11:10:08;;;;;;;27.88;16.23;;;;;;;;;;5036606;28;20028;-71
2024/01/17 11:12:36;;;;;;;26.17;15.10;;;;;;;;;;5054245;28;20059;-71
2024/01/17 11:15:04;;;;;;;23.92;14.27;;;;;;;;;;5034850;28;20029;-76
2024/01/17 11:17:35;;;;;;;26.60;15.00;;;;;;;;;;5032737;28;20030;-74
2024/01/17 11:20:07;;;;;;;28.75;15.25;;;;;;;;;;5046959;28;20013;-73
2024/01/17 11:22:33;;;;;;;23.30;14.65;;;;;;;;;;5041134;28;20037;-72
2024/01/17 11:24:59;;;;;;;22.23;12.90;;;;;;;;;;5034935;28;20045;-74
2024/01/17 11:27:29;;;;;;;24.33;13.35;;;;;;;;;;5032584;28;20037;-72
2024/01/17 11:30:01;;;;;;;;;;;2.70;99.90;;;;;;5047283;28;20037;-72
2024/01/17 11:32:45;;;;;;;23.73;13.25;;;2.70;99.90;;;;;;5051484;28;19960;-73
2024/01/17 11:35:49;;;;;;;19.65;12.57;;;2.70;99.90;;;;;;5032854;28;20026;-73
2024/01/17 11:38:24;;;;;;;21.80;13.00;;;2.70;99.90;;;;;;5042887;28;20028;-73
2024/01/17 11:41:11;;;;;;;22.08;12.23;;;2.70;99.90;;;;;;5043047;28;20548;-72
2024/01/17 11:43:38;;;;;;;18.85;12.18;;;2.70;99.90;;;;;;5035569;28;20719;-73
2024/01/17 11:46:05;;;;;;;19.50;11.90;;;2.70;99.90;;;;;;5036980;28;20110;-73
2024/01/17 11:48:33;;;;;;;16.02;9.95;;;2.70;99.90;;;;;;5041773;28;20021;-73
2024/01/17 11:51:18;;;;;;;15.88;8.05;;;2.80;99.90;;;;;;5044656;28;20195;-73
2024/01/17 11:53:50;;;;;;;14.13;8.05;;;2.90;99.90;;;;;;5039314;28;20009;-72
2024/01/17 11:56:20;;;;;;;12.45;6.53;;;3.10;99.90;;;;;;5045589;28;20056;-73
2024/01/17 11:58:49;;;;;;;8.82;6.32;;;;;;;;;;5035538;28;20017;-74
2024/01/17 12:01:41;;;;;;;11.38;6.82;;;3.50;99.90;;;;;;5039992;28;20408;-71
2024/01/17 12:04:11;;;;;;;23.60;11.95;;;3.80;99.90;;;;;;5036999;28;20029;-71
2024/01/17 12:06:51;;;;;;;14.45;8.32;;;3.80;99.90;;;;;;5037670;28;20108;-74
2024/01/17 12:09:20;;;;;;;;;;;3.90;99.90;;;;;;5015747;28;20048;-73
2024/01/17 12:11:47;;;;;;;12.07;6.22;;;3.90;99.90;;;;;;5061707;28;20297;-73
2024/01/17 12:14:20;;;;;;;10.65;6.20;;;4.00;99.90;;;;;;5048718;28;20021;-73
2024/01/17 12:16:47;;;;;;;10.65;6.22;;;4.00;99.90;;;;;;5038841;28;20036;-72
2024/01/17 12:19:15;;;;;;;8.38;5.95;;;;;;;;;;5042977;28;20025;-72
2024/01/17 12:21:43;;;;;;;10.82;6.88;;;;;;;;;;5051003;28;20056;-72
2024/01/17 12:24:13;;;;;;;13.80;7.80;;;;;;;;;;5046896;28;20037;-73
2024/01/17 12:26:41;;;;;;;14.63;7.68;;;;;;;;;;5036960;28;20033;-72
2024/01/17 12:29:11;;;;;;;14.05;7.43;;;;;;;;;;5043987;28;20037;-72
2024/01/17 12:31:37;;;;;;;16.80;7.80;;;;;;;;;;5043939;28;20608;-73
2024/01/17 12:34:06;;;;;;;11.52;7.65;;;;;;;;;;5036222;28;20411;-73
2024/01/17 12:36:32;;;;;;;13.48;7.63;;;;;;;;;;5038703;28;20429;-73
2024/01/17 12:39:02;;;;;;;11.60;7.75;;;;;;;;;;5043301;28;20452;-71
2024/01/17 12:41:29;;;;;;;13.70;8.10;;;;;;;;;;5044906;28;20113;-73
2024/01/17 12:43:55;;;;;;;18.45;8.70;;;;;;;;;;5032772;28;20025;-73
2024/01/17 12:46:21;;;;;;;12.07;7.47;;;;;;;;;;5034742;28;20071;-73
2024/01/17 12:48:54;;;;;;;13.73;8.32;;;;;;;;;;5043859;28;20116;-72
2024/01/17 12:51:21;;;;;;;14.10;8.10;;;;;;;;;;5043275;28;20385;-72